createdAt,value
2017-10-11T00:02:26.358Z,36.09
2017-10-11T00:04:53.551Z,36.10
2017-10-11T00:07:21.049Z,36.14
2017-10-11T00:09:48.275Z,36.14
2017-10-11T00:12:17.984Z,36.18
2017-10-11T00:14:52.599Z,36.14
2017-10-11T00:17:20.055Z,36.17
2017-10-11T00:19:47.248Z,36.17
2017-10-11T00:22:14.439Z,36.19
2017-10-11T00:24:41.649Z,36.20
2017-10-11T00:27:09.083Z,36.18
2017-10-11T00:29:36.296Z,36.19
2017-10-11T00:32:03.471Z,36.19
2017-10-11T00:34:30.656Z,36.21
2017-10-11T00:36:58.027Z,36.20
2017-10-11T00:39:25.262Z,36.19
2017-10-11T00:41:53.677Z,36.18
2017-10-11T00:44:20.916Z,36.21
2017-10-11T00:46:48.137Z,36.21
2017-10-11T00:49:15.379Z,36.23
2017-10-11T00:51:54.924Z,36.24
2017-10-11T00:54:22.233Z,36.19
2017-10-11T00:56:56.970Z,36.21
2017-10-11T00:59:24.203Z,36.18
2017-10-11T01:01:51.374Z,36.13
2017-10-11T01:04:18.528Z,36.22
2017-10-11T01:06:45.797Z,36.25
2017-10-11T01:09:12.951Z,36.27
2017-10-11T01:11:40.164Z,36.31
2017-10-11T01:14:07.440Z,36.44
2017-10-11T01:16:34.588Z,36.36
2017-10-11T01:19:01.748Z,36.47
2017-10-11T01:21:29.063Z,36.51
2017-10-11T01:23:56.242Z,36.57
2017-10-11T01:26:37.823Z,36.65
2017-10-11T01:29:06.513Z,36.72
2017-10-11T01:31:33.686Z,36.72
2017-10-11T01:34:00.862Z,36.75
2017-10-11T01:36:28.067Z,36.78
2017-10-11T01:38:55.223Z,36.81
2017-10-11T01:41:22.493Z,36.83
2017-10-11T01:43:49.676Z,36.81
2017-10-11T01:46:16.853Z,36.85
2017-10-11T01:48:56.571Z,36.88
2017-10-11T01:51:23.716Z,36.87
2017-10-11T01:53:50.926Z,36.87
2017-10-11T01:58:56.257Z,36.88
2017-10-11T02:01:23.758Z,36.83
2017-10-11T02:03:51.032Z,36.80
2017-10-11T02:09:06.662Z,36.89
2017-10-11T02:11:54.759Z,36.90
2017-10-11T02:14:22.238Z,36.88
2017-10-11T02:16:49.699Z,36.84
2017-10-11T02:19:17.126Z,36.86
2017-10-11T02:21:44.318Z,36.81
2017-10-11T02:24:11.604Z,36.82
2017-10-11T02:26:38.809Z,36.87
2017-10-11T02:29:13.929Z,36.76
2017-10-11T02:31:41.103Z,36.71
2017-10-11T02:34:08.343Z,36.73
2017-10-11T02:36:35.613Z,36.63
2017-10-11T02:39:02.835Z,36.65
2017-10-11T02:41:30.056Z,36.60
2017-10-11T02:43:57.236Z,36.60
2017-10-11T02:49:12.489Z,36.53
2017-10-11T02:51:39.638Z,36.58
2017-10-11T02:54:06.824Z,36.57
2017-10-11T02:59:19.770Z,36.51
2017-10-11T03:01:46.959Z,36.56
2017-10-11T03:04:14.186Z,36.53
2017-10-11T03:06:41.343Z,36.49
2017-10-11T03:09:08.829Z,36.55
2017-10-11T03:11:35.999Z,36.49
2017-10-11T03:16:50.295Z,36.43
2017-10-11T03:19:24.744Z,36.49
2017-10-11T03:21:51.962Z,36.41
2017-10-11T03:24:19.203Z,36.36
2017-10-11T03:26:46.447Z,36.36
2017-10-11T03:29:13.645Z,36.35
2017-10-11T03:31:40.891Z,36.31
2017-10-11T03:34:08.136Z,36.35
2017-10-11T03:36:35.367Z,36.28
2017-10-11T03:39:02.563Z,36.21
2017-10-11T03:41:29.787Z,36.26
2017-10-11T03:43:56.932Z,36.24
2017-10-11T03:46:24.111Z,36.21
2017-10-11T03:48:51.366Z,36.07
2017-10-11T03:51:18.617Z,36.05
2017-10-11T03:53:45.820Z,35.95
2017-10-11T03:56:13.014Z,35.83
2017-10-11T03:58:40.347Z,35.75
2017-10-11T04:01:08.361Z,35.65
2017-10-11T04:03:35.626Z,35.62
2017-10-11T04:06:02.946Z,35.58
2017-10-11T04:08:30.154Z,35.31
2017-10-11T04:10:57.306Z,35.32
2017-10-11T04:13:24.495Z,35.25
2017-10-11T04:15:51.771Z,35.15
2017-10-11T04:18:18.946Z,35.09
2017-10-11T04:20:47.244Z,37.21
2017-10-11T04:23:14.547Z,37.18
2017-10-11T04:25:41.833Z,36.92
2017-10-11T04:28:09.011Z,36.08
2017-10-11T04:30:43.239Z,36.56
2017-10-11T04:33:10.433Z,36.03
2017-10-11T04:35:37.925Z,35.88
2017-10-11T04:38:05.127Z,35.98
2017-10-11T04:40:32.371Z,36.40
2017-10-11T04:42:59.657Z,35.93
2017-10-11T04:45:26.873Z,35.72
2017-10-11T04:47:54.103Z,35.48
2017-10-11T04:50:21.372Z,35.67
2017-10-11T04:52:48.601Z,35.50
2017-10-11T04:55:15.858Z,35.33
2017-10-11T04:57:44.553Z,35.27
2017-10-11T05:00:12.040Z,35.15
2017-10-11T05:02:40.501Z,35.30
2017-10-11T05:05:10.823Z,35.52
2017-10-11T05:07:38.123Z,35.27
2017-10-11T05:10:05.326Z,35.07
2017-10-11T05:12:32.523Z,34.97
2017-10-11T05:14:59.781Z,35.30
2017-10-11T05:17:26.992Z,34.79
2017-10-11T05:19:54.337Z,34.95
2017-10-11T05:22:21.666Z,34.85
2017-10-11T05:27:23.700Z,34.78
2017-10-11T05:29:50.941Z,34.86
2017-10-11T05:32:21.782Z,34.63
2017-10-11T05:34:49.043Z,34.46
2017-10-11T05:37:16.247Z,34.33
2017-10-11T05:39:43.544Z,34.33
2017-10-11T05:44:48.405Z,34.42
2017-10-11T05:47:36.689Z,34.19
2017-10-11T05:50:03.980Z,34.62
2017-10-11T05:52:31.371Z,34.49
2017-10-11T05:57:41.336Z,34.64
2017-10-11T06:00:08.562Z,34.78
2017-10-11T06:02:35.866Z,34.53
2017-10-11T06:05:03.093Z,34.19
2017-10-11T06:07:30.389Z,34.24
2017-10-11T06:09:57.573Z,34.20
2017-10-11T06:12:24.838Z,34.03
2017-10-11T06:14:52.068Z,34.17
2017-10-11T06:17:19.532Z,34.37
2017-10-11T06:19:46.924Z,34.05
2017-10-11T06:24:50.768Z,34.37
2017-10-11T06:27:18.241Z,34.20
2017-10-11T06:32:33.311Z,34.30
2017-10-11T06:35:00.564Z,34.00
2017-10-11T06:37:31.553Z,33.79
2017-10-11T06:39:59.915Z,33.83
2017-10-11T06:42:27.183Z,34.06
2017-10-11T06:44:54.420Z,33.89
2017-10-11T06:47:21.714Z,33.81
2017-10-11T06:49:49.064Z,33.68
2017-10-11T06:52:16.320Z,33.69
2017-10-11T06:54:43.479Z,33.70
2017-10-11T06:57:10.750Z,33.69
2017-10-11T06:59:38.063Z,33.90
2017-10-11T07:07:07.956Z,33.97
2017-10-11T07:09:35.171Z,34.01
2017-10-11T07:12:02.448Z,33.90
2017-10-11T07:14:29.744Z,33.98
2017-10-11T07:16:57.021Z,34.02
2017-10-11T07:19:24.337Z,34.17
2017-10-11T07:21:54.741Z,33.92
2017-10-11T07:24:24.586Z,33.84
2017-10-11T07:26:52.480Z,33.86
2017-10-11T07:29:24.985Z,33.99
2017-10-11T07:36:58.151Z,34.02
2017-10-11T07:39:25.428Z,33.99
2017-10-11T07:41:52.890Z,34.02
2017-10-11T07:51:59.735Z,33.96
2017-10-11T07:54:29.535Z,33.92
2017-10-11T08:04:40.536Z,33.98
2017-10-11T08:07:10.784Z,33.94
2017-10-11T08:14:45.611Z,33.91
2017-10-11T08:17:12.924Z,33.82
2017-10-11T08:19:40.259Z,33.79
2017-10-11T08:22:07.912Z,33.87
2017-10-11T08:32:13.477Z,33.90
2017-10-11T08:42:20.178Z,33.86
2017-10-11T08:55:36.621Z,34.03
2017-10-11T09:04:10.714Z,33.94
2017-10-11T09:09:10.794Z,33.85
2017-10-11T09:14:16.929Z,33.83
2017-10-11T09:24:27.587Z,33.69
2017-10-11T10:20:38.379Z,33.25
2017-10-11T10:41:31.543Z,32.89
2017-10-11T10:51:40.549Z,33.02
2017-10-11T10:59:16.013Z,32.74
2017-10-11T11:06:47.510Z,32.66
2017-10-11T11:19:32.264Z,32.71
2017-10-11T11:24:39.922Z,32.84
2017-10-11T13:11:17.580Z,30.77
2017-10-11T14:08:28.238Z,30.28
2017-10-11T14:10:57.964Z,30.39
2017-10-11T14:51:47.014Z,30.01
2017-10-11T14:56:49.549Z,30.15
2017-10-11T15:04:20.144Z,30.24
2017-10-11T15:06:47.614Z,30.25
2017-10-11T15:19:29.922Z,30.45
2017-10-11T15:37:17.803Z,30.80
2017-10-11T15:39:48.254Z,30.83
2017-10-11T15:42:15.661Z,30.92
2017-10-11T15:44:42.921Z,30.92
2017-10-11T15:47:11.030Z,30.94
2017-10-11T15:49:38.421Z,31.03
2017-10-11T15:52:05.889Z,30.95
2017-10-11T15:54:33.269Z,30.97
2017-10-11T15:57:00.946Z,31.08
2017-10-11T15:59:28.306Z,31.09
2017-10-11T16:01:55.614Z,31.03
2017-10-11T16:04:22.922Z,31.07
2017-10-11T16:06:50.135Z,31.27
2017-10-11T16:09:17.599Z,31.18
2017-10-11T16:11:44.766Z,31.40
2017-10-11T16:14:12.200Z,31.46
2017-10-11T16:16:39.454Z,31.39
2017-10-11T16:19:06.673Z,31.38
2017-10-11T16:21:33.962Z,31.46
2017-10-11T16:24:01.206Z,31.38
2017-10-11T16:26:28.548Z,31.41
2017-10-11T16:28:55.879Z,31.41
2017-10-11T16:31:23.068Z,31.61
2017-10-11T16:33:50.378Z,31.54
2017-10-11T16:36:17.684Z,31.65
2017-10-11T16:38:44.935Z,31.67
2017-10-11T16:41:12.143Z,31.70
2017-10-11T16:43:39.564Z,31.78
2017-10-11T16:46:06.852Z,31.99
2017-10-11T16:48:34.408Z,31.97
2017-10-11T16:51:01.685Z,31.98
2017-10-11T16:53:28.954Z,32.18
2017-10-11T16:55:56.214Z,32.42
2017-10-11T16:58:23.471Z,32.67
2017-10-11T17:00:50.739Z,32.54
2017-10-11T17:03:18.277Z,32.72
2017-10-11T17:05:45.442Z,32.56
2017-10-11T17:08:12.837Z,32.50
2017-10-11T17:10:40.103Z,32.60
2017-10-11T17:13:07.318Z,32.60
2017-10-11T17:15:35.059Z,32.63
2017-10-11T17:18:02.425Z,32.68
2017-10-11T17:20:29.665Z,32.50
2017-10-11T17:22:56.919Z,32.52
2017-10-11T17:25:24.162Z,32.49
2017-10-11T17:27:51.394Z,32.64
2017-10-11T17:30:18.692Z,32.63
2017-10-11T17:32:46.036Z,32.65
2017-10-11T17:35:13.357Z,32.73
2017-10-11T17:37:40.644Z,32.85
2017-10-11T17:40:08.184Z,32.69
2017-10-11T17:42:35.417Z,32.77
2017-10-11T17:45:02.613Z,32.77
2017-10-11T17:47:29.860Z,32.71
2017-10-11T17:49:57.090Z,32.84
2017-10-11T17:52:24.303Z,32.99
2017-10-11T17:54:51.612Z,32.95
2017-10-11T17:57:18.854Z,32.82
2017-10-11T17:59:46.064Z,32.96
2017-10-11T18:02:13.274Z,32.97
2017-10-11T18:04:40.453Z,32.92
2017-10-11T18:07:08.394Z,32.90
2017-10-11T18:09:36.039Z,32.90
2017-10-11T18:12:03.479Z,32.95
2017-10-11T18:14:30.684Z,33.07
2017-10-11T18:16:57.987Z,33.13
2017-10-11T18:19:25.168Z,33.06
2017-10-11T18:21:52.385Z,33.14
2017-10-11T18:24:19.556Z,33.07
2017-10-11T18:26:46.909Z,33.31
2017-10-11T18:29:14.455Z,33.22
2017-10-11T18:31:41.716Z,33.43
2017-10-11T18:34:08.904Z,33.41
2017-10-11T18:36:36.134Z,33.44
2017-10-11T18:39:03.421Z,33.43
2017-10-11T18:41:30.603Z,33.43
2017-10-11T18:43:57.904Z,33.52
2017-10-11T18:46:25.187Z,33.64
2017-10-11T18:48:52.557Z,33.71
2017-10-11T18:51:19.815Z,33.52
2017-10-11T18:53:47.022Z,33.56
2017-10-11T18:56:14.223Z,33.62
2017-10-11T18:58:41.454Z,33.69
2017-10-11T19:01:08.695Z,33.79
2017-10-11T19:03:35.928Z,33.86
2017-10-11T19:06:03.462Z,33.83
2017-10-11T19:08:30.738Z,33.80
2017-10-11T19:10:57.942Z,33.87
2017-10-11T19:13:25.351Z,33.88
2017-10-11T19:15:52.549Z,33.88
2017-10-11T19:18:19.815Z,33.86
2017-10-11T19:20:47.066Z,33.98
2017-10-11T19:23:14.374Z,33.91
2017-10-11T19:25:41.596Z,33.97
2017-10-11T19:28:08.835Z,33.97
2017-10-11T19:30:36.061Z,34.18
2017-10-11T19:33:03.477Z,34.12
2017-10-11T19:35:31.811Z,34.10
2017-10-11T19:37:59.157Z,33.99
2017-10-11T19:40:26.379Z,34.11
2017-10-11T19:42:53.657Z,34.12
2017-10-11T19:45:21.032Z,34.13
2017-10-11T19:47:48.215Z,34.14
2017-10-11T19:50:15.516Z,34.16
2017-10-11T19:52:42.887Z,34.31
2017-10-11T19:55:10.064Z,34.46
2017-10-11T19:57:37.224Z,34.50
2017-10-11T20:00:04.435Z,34.42
2017-10-11T20:02:31.620Z,34.38
2017-10-11T20:04:58.884Z,34.46
2017-10-11T20:07:26.187Z,34.46
2017-10-11T20:09:53.491Z,34.67
2017-10-11T20:12:20.663Z,34.82
2017-10-11T20:14:47.976Z,34.84
2017-10-11T20:17:15.251Z,34.95
2017-10-11T20:19:43.279Z,35.01
2017-10-11T20:22:10.728Z,35.12
2017-10-11T20:24:38.847Z,35.20
2017-10-11T20:27:06.570Z,35.20
2017-10-11T20:29:33.770Z,35.32
2017-10-11T20:32:01.271Z,35.40
2017-10-11T20:34:28.872Z,35.42
2017-10-11T20:36:56.126Z,35.52
2017-10-11T20:39:24.366Z,35.56
2017-10-11T20:41:51.643Z,35.74
2017-10-11T20:44:18.937Z,35.70
2017-10-11T20:46:46.261Z,35.78
2017-10-11T20:49:13.525Z,35.87
2017-10-11T20:51:41.096Z,35.96
2017-10-11T20:54:08.399Z,35.90
2017-10-11T20:56:35.688Z,35.95
2017-10-11T20:59:02.959Z,35.99
2017-10-11T21:01:30.162Z,36.05
2017-10-11T21:03:57.399Z,36.09
2017-10-11T21:06:24.558Z,36.21
2017-10-11T21:08:51.778Z,36.17
2017-10-11T21:11:19.530Z,36.20
2017-10-11T21:13:46.752Z,36.28
2017-10-11T21:16:13.909Z,36.34
2017-10-11T21:18:41.258Z,36.42
2017-10-11T21:21:08.513Z,36.45
2017-10-11T21:23:35.728Z,36.43
2017-10-11T21:26:02.899Z,36.45
2017-10-11T21:28:30.150Z,36.52
2017-10-11T21:30:57.327Z,36.50
2017-10-11T21:33:24.636Z,36.52
2017-10-11T21:35:51.852Z,36.56
2017-10-11T21:38:19.071Z,36.65
2017-10-11T21:40:46.971Z,36.65
2017-10-11T21:43:14.258Z,36.67
2017-10-11T21:45:42.043Z,36.70
2017-10-11T21:48:09.357Z,36.71
2017-10-11T21:50:36.705Z,36.75
2017-10-11T21:53:03.979Z,36.77
2017-10-11T21:55:31.150Z,36.78
2017-10-11T21:57:58.410Z,36.80
2017-10-11T22:00:25.669Z,36.83
2017-10-11T22:02:52.918Z,36.80
2017-10-11T22:05:20.179Z,36.77
2017-10-11T22:07:47.428Z,36.84
2017-10-11T22:10:14.640Z,36.90
2017-10-11T22:12:41.841Z,36.86
2017-10-11T22:15:09.101Z,36.91
2017-10-11T22:17:36.456Z,36.93
2017-10-11T22:20:03.839Z,36.99
2017-10-11T22:22:32.098Z,36.99
2017-10-11T22:24:59.357Z,36.98
2017-10-11T22:27:26.562Z,37.04
2017-10-11T22:29:53.786Z,37.07
2017-10-11T22:32:21.070Z,37.08
2017-10-11T22:34:48.445Z,37.12
2017-10-11T22:37:15.708Z,37.10
2017-10-11T22:39:43.000Z,37.12
2017-10-11T22:42:10.315Z,37.14
2017-10-11T22:44:37.532Z,37.15
2017-10-11T22:47:04.774Z,37.22
2017-10-11T22:49:31.994Z,37.18
2017-10-11T22:51:59.187Z,37.22
2017-10-11T22:54:26.670Z,37.21
2017-10-11T22:56:53.881Z,37.22
2017-10-11T22:59:21.156Z,37.22
2017-10-11T23:01:48.609Z,37.21
2017-10-11T23:04:15.830Z,37.22
2017-10-11T23:06:42.997Z,37.26
2017-10-11T23:09:10.269Z,37.27
2017-10-11T23:11:37.603Z,37.27
2017-10-11T23:14:04.895Z,37.27
2017-10-11T23:16:33.483Z,37.27
2017-10-11T23:19:02.837Z,37.33
2017-10-11T23:21:30.120Z,37.27
2017-10-11T23:23:57.420Z,37.35
2017-10-11T23:26:25.683Z,37.32
2017-10-11T23:28:53.167Z,37.33
2017-10-11T23:31:20.450Z,37.31
2017-10-11T23:33:47.631Z,37.33
2017-10-11T23:36:14.899Z,37.34
2017-10-11T23:38:45.253Z,37.37
2017-10-11T23:41:12.737Z,37.38
2017-10-11T23:43:39.920Z,37.36
2017-10-11T23:46:07.189Z,37.38
2017-10-11T23:48:34.715Z,37.40
2017-10-11T23:51:01.946Z,37.38
2017-10-11T23:53:29.251Z,37.42
2017-10-11T23:55:56.474Z,37.43
2017-10-11T23:58:23.934Z,37.43
